Time;durP1;ratioP1;P1;durP2;ratioP2;P2;SDS_P1;SDS_P2;PMS_P1;PMS_P2;Temp;Humidity;BMP_temperature;BMP_pressure;BME280_temperature;BME280_humidity;BME280_pressure;Samples;Min_cycle;Max_cycle;Signal;HPM_P1;HPM_P2
2023/09/17 00:00:09;;;;;;;13.02;9.80;;;;;;;19.47;100.00;100140.28;4988444;28;20070;-77
2023/09/17 00:02:38;;;;;;;12.93;11.15;;;;;;;19.40;100.00;100135.56;4988327;28;20128;-75
2023/09/17 00:05:07;;;;;;;12.07;9.80;;;;;;;19.35;100.00;100140.53;4990666;28;20535;-76
2023/09/17 00:07:35;;;;;;;12.50;10.50;;;;;;;19.37;100.00;100144.75;4974065;28;20051;-74
2023/09/17 00:10:04;;;;;;;11.88;10.48;;;;;;;19.34;100.00;100142.34;4989418;28;20039;-74
2023/09/17 00:12:32;;;;;;;12.05;10.48;;;;;;;19.31;100.00;100147.13;4992063;28;20073;-75
2023/09/17 00:15:03;;;;;;;13.50;9.57;;;;;;;19.25;100.00;100135.09;4975246;28;20049;-74
2023/09/17 00:17:32;;;;;;;11.68;9.48;;;;;;;19.28;100.00;100141.03;4989148;28;20510;-75
2023/09/17 00:20:01;;;;;;;10.52;9.43;;;;;;;19.27;100.00;100143.84;4986320;28;20054;-75
2023/09/17 00:22:30;;;;;;;11.60;10.27;;;;;;;19.19;100.00;100139.16;4958596;28;20423;-75
2023/09/17 00:25:00;;;;;;;11.25;10.10;;;;;;;19.20;100.00;100150.75;4992597;28;20394;-75
2023/09/17 00:27:29;;;;;;;10.65;9.65;;;;;;;19.07;100.00;100123.25;4980564;28;20058;-75
2023/09/17 00:29:57;;;;;;;10.85;9.75;;;;;;;19.04;100.00;100129.75;4983098;28;20077;-74
2023/09/17 00:32:27;;;;;;;12.27;10.05;;;;;;;18.96;100.00;100120.66;4966000;28;20446;-75
2023/09/17 00:34:56;;;;;;;12.43;10.18;;;;;;;19.15;100.00;100145.78;4956048;28;20069;-76
2023/09/17 00:37:24;;;;;;;12.10;10.90;;;;;;;19.00;100.00;100124.78;4954861;28;20054;-76
2023/09/17 00:39:54;;;;;;;11.73;10.32;;;;;;;19.07;100.00;100134.00;4963991;28;20058;-75
2023/09/17 00:42:22;;;;;;;10.85;9.65;;;;;;;19.01;100.00;100134.53;4957772;28;20050;-76
2023/09/17 00:44:50;;;;;;;15.00;11.55;;;;;;;19.06;100.00;100149.25;4993241;28;20061;-75
2023/09/17 00:47:18;;;;;;;12.70;10.18;;;;;;;18.99;100.00;100145.41;4985966;28;20050;-75
2023/09/17 00:49:48;;;;;;;12.80;10.20;;;;;;;18.98;100.00;100146.38;4976975;28;20054;-75
2023/09/17 00:52:19;;;;;;;11.88;10.55;;;;;;;18.94;100.00;100142.25;4992662;28;20042;-76
2023/09/17 00:54:50;;;;;;;12.82;10.63;;;;;;;18.99;100.00;100147.22;4988376;28;20061;-75
2023/09/17 00:57:19;;;;;;;13.02;11.43;;;;;;;18.95;100.00;100141.28;4974069;28;20673;-75
2023/09/17 00:59:47;;;;;;;12.40;11.10;;;;;;;18.93;100.00;100140.53;5011084;28;20053;-75
2023/09/17 01:02:18;;;;;;;13.15;10.52;;;;;;;18.95;100.00;100149.31;4991538;28;20026;-75
2023/09/17 01:04:51;;;;;;;16.33;11.90;;;;;;;18.90;100.00;100138.97;4999214;28;20034;-75
2023/09/17 01:07:20;;;;;;;13.32;10.90;;;;;;;18.88;100.00;100135.59;5010770;28;20077;-75
2023/09/17 01:09:49;;;;;;;13.53;11.27;;;;;;;18.81;100.00;100122.81;5007839;28;20244;-75
2023/09/17 01:12:20;;;;;;;13.05;11.25;;;;;;;18.84;100.00;100128.78;4974141;28;20070;-74
2023/09/17 01:14:50;;;;;;;;;;;;;;;18.90;100.00;100138.97;4996904;28;20059;-75
2023/09/17 01:17:18;;;;;;;14.63;11.43;;;;;;;18.84;100.00;100126.09;4981019;28;19989;-76
2023/09/17 01:19:52;;;;;;;13.75;11.93;;;;;;;18.83;100.00;100132.44;5002374;28;20138;-75
2023/09/17 01:22:29;;;;;;;14.80;11.77;;;;;;;18.87;100.00;100135.72;4994232;28;20057;-75
2023/09/17 01:25:07;;;;;;;14.82;11.43;;;;;;;18.87;100.00;100135.72;4980337;28;20046;-75
2023/09/17 01:27:39;;;;;;;15.32;12.07;;;;;;;18.87;100.00;100133.03;4990476;28;20181;-75
2023/09/17 01:30:15;;;;;;;16.15;12.85;;;;;;;18.83;100.00;100120.88;4971343;28;20057;-75
2023/09/17 01:32:44;;;;;;;13.73;11.73;;;;;;;18.80;100.00;100127.34;4973703;28;20451;-76
2023/09/17 01:35:14;;;;;;;12.40;10.95;;;;;;;18.81;100.00;100133.56;4976396;28;20145;-76
2023/09/17 01:37:47;;;;;;;15.73;12.80;;;;;;;18.76;100.00;100123.22;4988823;28;20054;-76
2023/09/17 01:40:17;;;;;;;15.20;12.50;;;;;;;18.79;100.00;100124.78;4988423;28;20054;-75
2023/09/17 01:42:48;;;;;;;15.30;13.00;;;;;;;18.79;100.00;100130.16;4969822;28;20057;-75
2023/09/17 01:45:17;;;;;;;15.63;13.65;;;;;;;18.80;100.00;100130.03;4990007;28;20060;-76
2023/09/17 01:47:47;;;;;;;13.10;11.80;;;;;;;18.79;100.00;100135.50;4972509;28;20164;-75
2023/09/17 01:50:19;;;;;;;12.68;11.30;;;;;;;18.76;100.00;100141.13;4988208;28;20755;-76
2023/09/17 01:52:47;;;;;;;14.27;12.88;;;;;;;18.59;100.00;100107.69;4972745;28;20043;-76
2023/09/17 01:55:15;;;;;;;17.67;12.98;;;;;;;18.60;100.00;100113.91;4977971;28;20043;-76
2023/09/17 01:57:43;;;;;;;14.80;12.80;;;;;;;18.79;100.00;100135.50;4983526;28;20069;-75
2023/09/17 02:00:16;;;;;;;13.98;12.35;;;;;;;18.81;100.00;100141.59;4989239;28;20070;-76
2023/09/17 02:02:50;;;;;;;13.38;12.07;;;;;;;18.81;100.00;100139.78;4983543;28;20418;-78
2023/09/17 02:05:20;;;;;;;16.85;14.38;;;;;;;18.67;100.00;100125.84;4976218;28;20209;-77
2023/09/17 02:07:49;;;;;;;15.48;13.35;;;;;;;18.72;100.00;100129.00;4984644;28;20069;-76
2023/09/17 02:10:18;;;;;;;15.00;13.38;;;;;;;18.76;100.00;100133.94;4988185;28;20049;-76
2023/09/17 02:12:47;;;;;;;14.48;12.60;;;;;;;18.74;100.00;100138.56;4989119;28;20044;-76
2023/09/17 02:15:38;;;;;;;15.68;13.75;;;;;;;18.74;100.00;100127.00;4990305;28;20442;-75
2023/09/17 02:18:08;;;;;;;16.00;14.00;;;;;;;18.55;100.00;100095.53;4956785;28;20053;-76
2023/09/17 02:20:38;;;;;;;15.68;13.15;;;;;;;18.78;100.00;100115.88;4970192;28;20336;-77
2023/09/17 02:23:10;;;;;;;13.38;12.00;;;;;;;18.83;100.00;100129.75;4971572;28;20069;-75
2023/09/17 02:25:38;;;;;;;21.00;14.38;;;;;;;18.76;100.00;100122.34;4962091;28;20410;-76
2023/09/17 02:28:08;;;;;;;15.70;13.13;;;;;;;18.74;100.00;100133.22;5001074;28;20627;-75
2023/09/17 02:30:37;;;;;;;15.88;13.23;;;;;;;18.72;100.00;100135.19;5006831;28;20037;-74
2023/09/17 02:33:10;;;;;;;15.43;13.35;;;;;;;18.57;100.00;100117.69;4983058;28;20061;-73
2023/09/17 02:35:39;;;;;;;20.17;13.88;;;;;;;18.74;100.00;100130.53;5006728;28;20050;-75
2023/09/17 02:38:06;;;;;;;16.63;13.65;;;;;;;18.71;100.00;100133.50;5001952;28;20304;-76
2023/09/17 02:40:35;;;;;;;15.02;13.32;;;;;;;18.60;100.00;100130.00;4970942;28;20519;-76
2023/09/17 02:43:03;;;;;;;14.07;12.60;;;;;;;18.60;100.00;100138.03;4986391;28;20149;-77
2023/09/17 02:45:35;;;;;;;15.07;12.23;;;;;;;18.50;100.00;100132.59;4970728;28;20046;-77
2023/09/17 02:48:05;;;;;;;15.52;13.02;;;;;;;18.51;100.00;100143.19;4972332;28;20061;-77
2023/09/17 02:50:35;;;;;;;16.33;13.50;;;;;;;18.53;100.00;100141.22;4971545;28;20430;-77
2023/09/17 02:53:03;;;;;;;15.65;12.07;;;;;;;18.40;100.00;100115.56;4987638;28;20061;-77
2023/09/17 02:55:35;;;;;;;13.55;11.70;;;;;;;18.55;100.00;100141.09;4993782;28;20069;-76
2023/09/17 02:58:03;;;;;;;15.07;12.23;;;;;;;18.46;100.00;100129.31;4988588;28;20052;-77
2023/09/17 03:00:31;;;;;;;14.65;13.05;;;;;;;18.49;100.00;100134.41;4970032;28;20169;-75
2023/09/17 03:02:59;;;;;;;15.70;12.45;;;;;;;18.54;100.00;100140.25;4968350;28;20085;-75
2023/09/17 03:05:29;;;;;;;16.88;12.65;;;;;;;18.31;100.00;100098.41;4963089;28;20054;-74
2023/09/17 03:07:59;;;;;;;14.23;12.45;;;;;;;18.47;100.00;100133.69;4989795;28;20092;-76
2023/09/17 03:10:27;;;;;;;15.20;12.90;;;;;;;18.54;100.00;100152.81;4985563;28;20124;-75
2023/09/17 03:12:56;;;;;;;16.15;13.93;;;;;;;18.47;100.00;100146.25;4961192;28;20054;-75
2023/09/17 03:15:26;;;;;;;15.20;12.57;;;;;;;18.43;100.00;100145.63;4999781;28;20113;-75
2023/09/17 03:17:55;;;;;;;15.30;13.35;;;;;;;18.47;100.00;100156.97;5000338;28;20533;-76
2023/09/17 03:20:25;;;;;;;15.45;12.68;;;;;;;18.45;100.00;100146.38;4966050;28;20069;-76
2023/09/17 03:22:57;;;;;;;14.45;12.27;;;;;;;18.50;100.00;100149.53;4968503;28;21399;-75
2023/09/17 03:25:26;;;;;;;15.10;13.32;;;;;;;18.33;100.00;100112.53;4994024;28;20046;-76
2023/09/17 03:27:55;;;;;;;15.38;12.95;;;;;;;18.50;100.00;100136.13;4959990;28;20043;-75
2023/09/17 03:30:28;;;;;;;15.18;13.10;;;;;;;18.43;100.00;100129.56;4989898;28;20121;-75
2023/09/17 03:32:58;;;;;;;15.05;13.45;;;;;;;18.45;100.00;100142.84;4953799;28;20130;-76
2023/09/17 03:35:40;;;;;;;15.02;11.63;;;;;;;18.37;100.00;100135.44;4963925;28;20050;-75
2023/09/17 03:38:10;;;;;;;14.50;12.52;;;;;;;18.44;100.00;100139.31;4974819;28;20050;-76
2023/09/17 03:40:41;;;;;;;13.70;11.82;;;;;;;18.46;100.00;100140.03;4960604;28;20056;-76
2023/09/17 03:43:10;;;;;;;16.35;11.93;;;;;;;18.40;100.00;100127.16;4970620;28;20042;-76
2023/09/17 03:45:40;;;;;;;14.05;12.23;;;;;;;18.44;100.00;100131.25;4989686;28;20049;-77
2023/09/17 03:48:09;;;;;;;14.30;11.85;;;;;;;18.47;100.00;100139.06;4975170;28;20042;-76
2023/09/17 03:50:39;;;;;;;14.57;12.32;;;;;;;18.47;100.00;100135.50;4990233;28;20039;-76
2023/09/17 03:53:12;;;;;;;13.13;11.68;;;;;;;18.45;100.00;100124.06;4988153;28;20137;-74
2023/09/17 03:55:42;;;;;;;12.90;11.60;;;;;;;18.09;100.00;100066.38;4961530;28;20089;-76
2023/09/17 03:58:14;;;;;;;14.90;11.93;;;;;;;18.46;100.00;100129.31;4995373;28;20060;-75
2023/09/17 04:00:43;;;;;;;12.55;11.20;;;;;;;18.42;100.00;100127.00;4975775;28;20129;-76
2023/09/17 04:03:18;;;;;;;13.10;11.70;;;;;;;18.46;100.00;100133.81;4967174;28;20128;-76
2023/09/17 04:05:50;;;;;;;14.10;11.82;;;;;;;18.44;100.00;100115.16;4973750;28;20097;-76
2023/09/17 04:08:21;;;;;;;15.02;11.80;;;;;;;18.46;100.00;100131.97;4958081;28;20045;-76
2023/09/17 04:10:54;;;;;;;14.23;12.00;;;;;;;18.48;100.00;100131.84;4984074;28;20096;-77
2023/09/17 04:13:23;;;;;;;12.18;10.05;;;;;;;18.44;100.00;100128.56;4981682;28;20066;-76
2023/09/17 04:15:52;;;;;;;12.75;11.45;;;;;;;18.28;100.00;100101.34;4988241;28;20041;-76
2023/09/17 04:18:21;;;;;;;13.55;11.80;;;;;;;18.46;100.00;100128.44;4971870;28;21025;-76
2023/09/17 04:20:55;;;;;;;13.50;11.77;;;;;;;18.43;100.00;100144.78;4986446;28;20058;-75
2023/09/17 04:23:24;;;;;;;12.80;11.60;;;;;;;18.21;100.00;100111.75;4971447;28;20872;-76
2023/09/17 04:25:54;;;;;;;15.20;11.95;;;;;;;18.41;100.00;100146.78;4972551;28;20087;-75
2023/09/17 04:28:24;;;;;;;13.10;11.55;;;;;;;18.40;100.00;100142.38;4971195;28;20078;-77
2023/09/17 04:30:55;;;;;;;12.95;11.00;;;;;;;18.43;100.00;100147.47;4970515;28;20059;-76
2023/09/17 04:33:23;;;;;;;13.15;11.23;;;;;;;18.15;100.00;100089.97;4982555;28;20057;-75
2023/09/17 04:35:56;;;;;;;14.43;12.23;;;;;;;18.40;100.00;100129.84;4989814;28;20046;-75
2023/09/17 04:38:27;;;;;;;12.55;10.77;;;;;;;18.45;100.00;100149.06;4973476;28;20477;-75
2023/09/17 04:40:55;;;;;;;12.48;10.82;;;;;;;18.43;100.00;100137.59;4961027;28;20081;-75
2023/09/17 04:43:26;;;;;;;12.15;10.73;;;;;;;18.30;100.00;100107.44;4961220;28;20518;-75
2023/09/17 04:45:54;;;;;;;12.60;10.40;;;;;;;18.55;100.00;100146.47;4971239;28;20101;-76
2023/09/17 04:48:27;;;;;;;13.32;10.68;;;;;;;18.53;100.00;100148.41;4973672;28;20043;-77
2023/09/17 04:50:56;;;;;;;12.65;10.65;;;;;;;18.52;100.00;100144.88;4970712;28;20173;-77
2023/09/17 04:53:24;;;;;;;11.75;10.05;;;;;;;18.53;100.00;100148.41;4954465;28;20047;-77
2023/09/17 04:55:55;;;;;;;12.38;10.95;;;;;;;18.52;100.00;100155.63;4973845;28;20057;-76
2023/09/17 04:58:30;;;;;;;13.20;10.55;;;;;;;18.46;100.00;100137.34;4945685;28;20137;-76
2023/09/17 05:01:00;;;;;;;14.25;10.57;;;;;;;18.46;100.00;100137.34;4989394;28;20043;-75
2023/09/17 05:03:29;;;;;;;14.30;11.88;;;;;;;18.56;100.00;100150.84;4984393;28;20573;-76
2023/09/17 05:05:57;;;;;;;17.30;13.43;;;;;;;18.56;100.00;100151.72;4992118;28;20045;-75
2023/09/17 05:08:25;;;;;;;15.52;12.32;;;;;;;18.67;100.00;100163.38;4970300;28;20145;-75
2023/09/17 05:10:58;;;;;;;19.05;16.85;;;;;;;18.77;100.00;100167.84;4957142;28;20078;-77
2023/09/17 05:13:26;;;;;;;18.42;14.27;;;;;;;18.64;100.00;100134.13;4968128;28;20049;-75
2023/09/17 05:15:56;;;;;;;16.70;14.43;;;;;;;18.84;100.00;100160.13;4988711;28;20046;-76
2023/09/17 05:18:26;;;;;;;18.05;13.25;;;;;;;18.71;100.00;100138.88;4971579;28;20078;-75
2023/09/17 05:20:55;;;;;;;16.40;12.82;;;;;;;18.74;100.00;100138.56;4940373;28;20058;-75
2023/09/17 05:23:25;;;;;;;16.20;13.77;;;;;;;18.87;100.00;100154.50;4967630;28;20052;-76
2023/09/17 05:26:00;;;;;;;18.88;16.02;;;;;;;18.90;100.00;100157.75;4993661;28;20043;-75
2023/09/17 05:28:29;;;;;;;19.52;15.55;;;;;;;19.03;100.00;100171.00;4981965;28;20050;-75
2023/09/17 05:31:07;;;;;;;17.20;14.68;;;;;;;19.08;100.00;100178.63;4998904;28;20104;-75
2023/09/17 05:33:35;;;;;;;16.80;13.90;;;;;;;19.11;100.00;100183.75;4990975;28;20727;-74
2023/09/17 05:36:04;;;;;;;18.02;14.70;;;;;;;19.15;100.00;100180.69;4968717;28;20081;-76
2023/09/17 05:38:33;;;;;;;17.80;14.80;;;;;;;19.10;100.00;100166.78;4998435;28;20035;-75
2023/09/17 05:41:03;;;;;;;17.20;14.77;;;;;;;19.13;100.00;100182.63;4984773;28;20388;-75
2023/09/17 05:43:31;;;;;;;20.95;15.32;;;;;;;19.19;100.00;100190.19;4966445;28;20920;-75
2023/09/17 05:45:59;;;;;;;19.23;15.73;;;;;;;19.26;100.00;100191.34;4970377;28;20046;-76
2023/09/17 05:48:39;;;;;;;17.75;15.32;;;;;;;19.20;100.00;100180.28;4975366;28;20064;-75
2023/09/17 05:51:08;;;;;;;19.83;15.07;;;;;;;19.35;100.00;100197.75;4972340;28;20109;-74
2023/09/17 05:53:39;;;;;;;20.88;16.40;;;;;;;19.38;100.00;100196.63;4988128;28;20062;-74
2023/09/17 05:56:11;;;;;;;18.25;15.45;;;;;;;19.45;100.00;100204.03;4999650;28;20129;-75
2023/09/17 05:58:39;;;;;;;18.90;14.88;;;;;;;19.44;100.00;100198.78;5014616;28;20098;-75
2023/09/17 06:01:08;;;;;;;18.30;15.30;;;;;;;19.43;100.00;100200.63;5004296;28;20036;-75
2023/09/17 06:03:41;;;;;;;16.25;14.40;;;;;;;19.49;100.00;100213.56;4964892;28;20329;-74
2023/09/17 06:06:09;;;;;;;21.60;13.55;;;;;;;19.52;100.00;100213.25;4973901;28;20116;-76
2023/09/17 06:08:38;;;;;;;20.02;16.02;;;;;;;19.40;100.00;100178.53;4969579;28;20474;-74
2023/09/17 06:11:07;;;;;;;19.85;16.08;;;;;;;19.51;100.00;100198.16;4970450;28;20168;-77
2023/09/17 06:13:38;;;;;;;17.90;15.63;;;;;;;19.69;100.00;100216.31;4947710;28;20162;-75
2023/09/17 06:16:06;;;;;;;19.00;15.45;;;;;;;19.70;100.00;100220.69;4987372;28;20097;-76
2023/09/17 06:18:36;;;;;;;20.10;16.33;;;;;;;19.67;100.00;100208.41;4971534;28;20043;-76
2023/09/17 06:21:04;;;;;;;19.17;15.55;;;;;;;19.79;100.00;100223.44;4991827;28;20073;-76
2023/09/17 06:23:32;;;;;;;17.52;14.85;;;;;;;19.74;100.00;100198.81;4963880;28;21035;-75
2023/09/17 06:26:00;;;;;;;22.90;17.52;;;;;;;19.89;100.00;100224.31;4972048;28;20049;-76
2023/09/17 06:28:29;;;;;;;22.08;16.65;;;;;;;19.99;100.00;100228.91;4970169;28;20046;-76
2023/09/17 06:30:58;;;;;;;20.42;16.35;;;;;;;20.03;100.00;100224.94;4987332;28;20050;-75
2023/09/17 06:33:27;;;;;;;19.08;15.70;;;;;;;20.03;100.00;100204.28;4962680;28;20046;-76
2023/09/17 06:35:56;;;;;;;17.40;14.82;;;;;;;20.23;100.00;100224.00;4966016;28;20494;-76
2023/09/17 06:38:25;;;;;;;;;;;;;;;20.33;100.00;100227.56;4989287;28;20120;-76
2023/09/17 06:40:53;;;;;;;18.20;14.60;;;;;;;20.40;100.00;100225.22;4975848;28;19937;-76
2023/09/17 06:43:22;;;;;;;21.08;17.08;;;;;;;20.49;100.00;100222.53;4963446;28;20541;-76
2023/09/17 06:45:51;;;;;;;18.30;15.20;;;;;;;20.51;100.00;100222.41;4967568;28;20061;-76
2023/09/17 06:48:22;;;;;;;20.60;15.50;;;;;;;20.57;100.00;100225.38;4969904;28;20126;-76
2023/09/17 06:50:51;;;;;;;17.65;15.05;;;;;;;20.63;100.00;100227.50;4982950;28;20046;-75
2023/09/17 06:53:20;;;;;;;18.80;16.50;;;;;;;20.59;100.00;100228.78;4964414;28;20670;-75
2023/09/17 06:55:49;;;;;;;20.38;15.93;;;;;;;20.53;100.00;100223.97;4947825;28;20490;-75
2023/09/17 06:58:19;;;;;;;20.80;15.85;;;;;;;20.49;100.00;100210.91;4966964;28;20102;-75
2023/09/17 07:00:49;;;;;;;18.52;16.50;;;;;;;20.53;100.00;100226.66;4967329;28;20089;-76
2023/09/17 07:03:17;;;;;;;19.13;15.32;;;;;;;20.58;100.00;100223.56;4964647;28;20081;-74
2023/09/17 07:05:50;;;;;;;16.98;15.18;;;;;;;20.59;100.00;100219.88;4963951;28;20391;-74
2023/09/17 07:08:18;;;;;;;18.60;14.73;;;;;;;20.60;100.00;100211.66;4982361;28;20445;-74
2023/09/17 07:10:50;;;;;;;19.25;15.57;;;;;;;20.82;100.00;100197.06;4952929;28;20054;-75
2023/09/17 07:13:18;;;;;;;21.02;15.15;;;;;;;21.26;100.00;100210.91;4949160;28;20081;-75
2023/09/17 07:15:47;;;;;;;19.02;16.17;;;;;;;21.57;100.00;100222.31;4966173;28;20047;-75
2023/09/17 07:18:15;;;;;;;18.67;15.75;;;;;;;21.74;100.00;100223.41;4970522;28;20074;-75
2023/09/17 07:20:44;;;;;;;17.52;15.43;;;;;;;21.97;100.00;100220.19;4965375;28;20054;-76
2023/09/17 07:23:15;;;;;;;19.63;15.43;;;;;;;21.99;100.00;100228.16;4961824;28;20055;-75
2023/09/17 07:25:48;;;;;;;17.63;14.45;;;;;;;21.98;100.00;100221.91;4964804;28;20057;-75
2023/09/17 07:28:16;;;;;;;17.83;14.80;;;;;;;22.17;100.00;100214.75;4947540;28;20074;-76
2023/09/17 07:30:46;;;;;;;15.98;13.85;;;;;;;22.24;100.00;100213.97;4983080;28;20049;-76
2023/09/17 07:33:18;;;;;;;16.55;13.90;;;;;;;22.36;100.00;100206.50;4960378;28;20063;-76
2023/09/17 07:35:56;;;;;;;;;;;;;;;22.61;100.00;100221.97;4962385;28;20122;-73
2023/09/17 07:38:28;;;;;;;16.45;13.02;;;;;;;22.58;100.00;100191.75;4963380;28;19966;-76
2023/09/17 07:41:10;;;;;;;;;;;;;;;22.89;100.00;100230.03;4985506;28;20067;-75
2023/09/17 07:43:59;;;;;;;16.70;13.45;;;;;;;22.80;100.00;100191.31;4976624;28;19997;-78
2023/09/17 07:46:27;;;;;;;16.13;12.60;;;;;;;23.08;100.00;100224.47;4960357;28;20039;-74
2023/09/17 07:48:55;;;;;;;14.10;12.20;;;;;;;23.25;100.00;100236.25;4950710;28;20530;-74
2023/09/17 07:51:23;;;;;;;12.02;10.82;;;;;;;23.41;100.00;100241.78;4967777;28;20055;-74
2023/09/17 07:53:53;;;;;;;12.75;10.32;;;;;;;23.51;100.00;100244.34;4951709;28;20047;-76
2023/09/17 07:56:23;;;;;;;14.07;11.60;;;;;;;23.45;100.00;100226.94;4971703;28;20046;-75
2023/09/17 07:58:52;;;;;;;13.27;10.75;;;;;;;23.49;100.00;100236.41;4966240;28;20419;-75
2023/09/17 08:01:20;;;;;;;12.25;10.13;;;;;;;23.52;100.00;100235.28;4961699;28;20141;-76
2023/09/17 08:03:48;;;;;;;14.98;10.30;;;;;;;23.63;100.00;100225.03;4971350;28;20073;-75
2023/09/17 08:06:17;;;;;;;11.57;9.75;;;;;;;23.36;100.00;100207.09;4949511;28;20046;-75
2023/09/17 08:08:47;;;;;;;13.82;9.60;;;;;;;23.61;100.00;100237.88;4981433;28;20213;-75
2023/09/17 08:11:16;;;;;;;12.52;10.13;;;;;;;23.24;100.00;100226.44;4977844;28;20046;-75
2023/09/17 08:13:44;;;;;;;11.93;10.23;;;;;;;22.72;100.00;100221.75;4966680;28;20043;-77
2023/09/17 08:16:20;;;;;;;10.77;9.63;;;;;;;22.79;100.00;100238.22;4941307;28;20197;-80
2023/09/17 08:19:20;;;;;;;11.30;9.48;;;;;;;22.43;100.00;100147.41;4982996;28;20528;-78
2023/09/17 08:26:41;;;;;;;9.27;8.38;;;;;;;23.41;100.00;100230.97;4827203;29;20194;-75
2023/09/17 08:29:16;;;;;;;10.00;7.72;;;;;;;23.67;100.00;100221.00;4896204;29;21888;-76
2023/09/17 08:31:52;;;;;;;9.50;8.25;;;;;;;23.92;100.00;100238.25;4942005;28;20575;-74
2023/09/17 08:34:23;;;;;;;9.10;7.78;;;;;;;23.89;100.00;100229.59;4949707;28;21064;-75
2023/09/17 08:36:55;;;;;;;11.18;8.57;;;;;;;23.40;100.00;100238.22;4983132;28;20054;-75
2023/09/17 08:39:25;;;;;;;9.35;8.00;;;;;;;22.83;100.00;100195.53;4966198;28;20051;-75
2023/09/17 08:41:56;;;;;;;11.40;8.70;;;;;;;22.64;100.00;100216.28;4990734;28;20075;-75
2023/09/17 08:44:26;;;;;;;10.32;8.35;;;;;;;22.49;100.00;100233.16;4950689;28;20050;-74
2023/09/17 08:47:00;;;;;;;9.45;7.72;;;;;;;22.51;100.00;100248.16;4956645;28;20055;-74
2023/09/17 08:49:34;;;;;;;8.95;7.35;;;;;;;22.69;100.00;100251.72;4983309;28;20046;-72
2023/09/17 08:52:04;;;;;;;8.38;7.15;;;;;;;22.98;100.00;100250.72;4976367;28;20073;-73
2023/09/17 08:54:40;;;;;;;10.10;7.20;;;;;;;23.31;100.00;100241.84;4986492;28;21434;-72
2023/09/17 08:57:13;;;;;;;8.35;6.88;;;;;;;23.64;100.00;100250.22;4990190;28;20695;-74
2023/09/17 08:59:45;;;;;;;7.78;6.20;;;;;;;23.91;100.00;100243.81;4984713;28;20058;-74
2023/09/17 09:02:19;;;;;;;8.35;6.50;;;;;;;24.00;100.00;100219.31;4989415;28;20062;-75
2023/09/17 09:04:50;;;;;;;7.63;6.00;;;;;;;24.19;100.00;100215.53;4984663;28;20100;-75
2023/09/17 09:07:22;;;;;;;9.07;6.10;;;;;;;24.18;100.00;100231.91;4989660;28;20055;-74
2023/09/17 09:09:52;;;;;;;7.13;5.55;;;;;;;24.31;100.00;100227.75;4977361;28;20055;-74
2023/09/17 09:12:22;;;;;;;8.65;5.03;;;;;;;24.48;100.00;100226.78;4993973;28;20100;-74
2023/09/17 09:14:51;;;;;;;7.70;5.32;;;;;;;24.44;100.00;100201.06;4989524;28;20662;-74
2023/09/17 09:17:19;;;;;;;7.45;5.43;;;;;;;24.66;100.00;100234.78;4991688;28;20058;-74
2023/09/17 09:19:47;;;;;;;6.93;5.43;;;;;;;24.81;100.00;100227.72;4981204;28;20421;-74
2023/09/17 09:22:18;;;;;;;7.28;5.03;;;;;;;24.93;100.00;100217.38;4999486;28;20073;-74
2023/09/17 09:24:47;;;;;;;6.82;5.47;;;;;;;25.01;100.00;100214.72;5003753;28;20072;-73
2023/09/17 09:27:15;;;;;;;5.90;5.13;;;;;;;25.21;100.00;100233.31;4986091;28;20109;-74
2023/09/17 09:29:47;;;;;;;6.28;5.07;;;;;;;25.29;100.00;100231.47;4997756;28;20102;-74
2023/09/17 09:32:18;;;;;;;;;;;;;;;25.40;100.00;100225.69;4981139;28;20046;-74
2023/09/17 09:34:47;;;;;;;6.30;4.57;;;;;;;25.25;93.05;100189.47;4993651;28;20430;-74
2023/09/17 09:37:15;;;;;;;5.90;4.40;;;;;;;25.32;94.23;100217.59;4993042;28;20479;-73
2023/09/17 09:39:45;;;;;;;8.07;4.55;;;;;;;25.40;93.12;100219.41;4978282;28;20540;-73
2023/09/17 09:42:13;;;;;;;7.13;4.07;;;;;;;25.59;88.06;100220.91;4977228;28;20038;-74
2023/09/17 09:44:41;;;;;;;5.68;3.55;;;;;;;25.62;83.54;100207.91;4991068;28;20050;-73
2023/09/17 09:47:14;;;;;;;5.47;3.78;;;;;;;25.80;85.74;100218.53;4988067;28;20050;-73
2023/09/17 09:49:45;;;;;;;5.63;3.90;;;;;;;26.01;83.63;100223.34;4990443;28;20046;-73
2023/09/17 09:52:17;;;;;;;6.03;4.30;;;;;;;26.04;83.29;100209.44;4972226;28;20520;-73
2023/09/17 09:54:46;;;;;;;6.38;4.40;;;;;;;25.90;81.68;100213.75;4973783;28;20042;-74
2023/09/17 09:57:17;;;;;;;7.23;4.20;;;;;;;25.63;84.32;100204.16;4972605;28;20058;-74
2023/09/17 09:59:47;;;;;;;6.30;4.18;;;;;;;25.71;84.46;100209.56;4990287;28;20096;-73
2023/09/17 10:02:20;;;;;;;8.18;3.80;;;;;;;25.63;86.24;100190.63;4974365;28;20051;-74
2023/09/17 10:04:49;;;;;;;6.80;4.45;;;;;;;25.79;86.91;100214.13;4986314;28;20065;-73
2023/09/17 10:07:18;;;;;;;;;;;;;;;25.75;85.36;100220.91;4976577;28;20046;-73
2023/09/17 10:09:50;;;;;;;5.30;4.20;;;;;;;25.77;84.00;100216.16;4974346;28;19922;-73
2023/09/17 10:12:18;;;;;;;6.53;4.30;;;;;;;25.77;83.86;100197.19;4975078;28;20068;-72
2023/09/17 10:14:48;;;;;;;5.55;4.30;;;;;;;25.78;83.87;100179.88;4972473;28;20046;-74
2023/09/17 10:17:19;;;;;;;6.07;4.00;;;;;;;26.00;82.86;100208.94;4970810;28;20042;-73
2023/09/17 10:19:48;;;;;;;9.02;4.47;;;;;;;26.14;80.86;100210.06;4990851;28;20050;-72
2023/09/17 10:22:18;;;;;;;4.88;4.00;;;;;;;25.93;80.78;100153.72;4958497;28;20042;-74
2023/09/17 10:24:47;;;;;;;7.95;4.63;;;;;;;26.31;78.46;100197.28;4982335;28;20106;-73
2023/09/17 10:27:19;;;;;;;6.97;4.05;;;;;;;26.33;79.06;100184.38;4969123;28;20042;-73
2023/09/17 10:29:50;;;;;;;8.05;4.20;;;;;;;26.57;76.28;100188.84;4957903;28;20060;-72
2023/09/17 10:32:21;;;;;;;7.55;4.57;;;;;;;26.85;73.30;100192.69;4992165;28;20050;-75
2023/09/17 10:34:53;;;;;;;6.68;4.50;;;;;;;27.05;74.76;100188.50;4981068;28;20172;-73
2023/09/17 10:37:22;;;;;;;7.78;4.50;;;;;;;27.18;71.66;100179.72;4977657;28;20046;-73
2023/09/17 10:39:51;;;;;;;5.90;4.38;;;;;;;27.33;69.92;100175.13;4991266;28;20101;-73
2023/09/17 10:42:21;;;;;;;5.50;4.35;;;;;;;27.33;70.25;100164.25;4996812;28;20058;-75
2023/09/17 10:44:50;;;;;;;;;;;;;;;27.23;69.74;100177.28;4994043;28;20035;-72
2023/09/17 10:47:24;;;;;;;8.38;4.63;;;;;;;26.81;73.87;100170.47;4972022;28;19922;-72
2023/09/17 10:49:54;;;;;;;7.38;4.90;;;;;;;26.61;77.23;100168.41;4980163;28;20051;-73
2023/09/17 10:52:23;;;;;;;6.40;4.68;;;;;;;26.79;78.19;100177.97;4987664;28;20085;-73
2023/09/17 10:54:53;;;;;;;6.55;4.50;;;;;;;26.82;75.65;100157.72;4967457;28;20046;-74
2023/09/17 10:57:35;;;;;;;6.03;4.30;;;;;;;27.11;73.69;100168.72;4965885;28;20058;-74
2023/09/17 11:00:05;;;;;;;7.07;4.80;;;;;;;27.08;71.42;100152.75;4968361;28;20169;-74
2023/09/17 11:02:45;;;;;;;8.10;4.93;;;;;;;27.10;74.30;100152.59;4975040;28;20049;-73
2023/09/17 11:05:19;;;;;;;6.10;4.03;;;;;;;27.17;72.07;100148.97;4969742;28;20066;-72
2023/09/17 11:07:49;;;;;;;8.15;4.50;;;;;;;27.41;72.14;100166.03;4985362;28;20057;-72
2023/09/17 11:10:18;;;;;;;6.13;3.95;;;;;;;27.45;69.92;100165.50;4978837;28;20062;-73
2023/09/17 11:13:00;;;;;;;5.75;4.10;;;;;;;27.54;66.92;100149.94;4980079;28;20074;-74
2023/09/17 11:15:30;;;;;;;8.30;4.10;;;;;;;27.61;65.80;100137.28;4978133;28;20079;-72
2023/09/17 11:18:01;;;;;;;6.22;4.05;;;;;;;27.73;66.76;100148.53;4996522;28;20131;-72
2023/09/17 11:20:30;;;;;;;9.52;4.30;;;;;;;27.85;66.82;100147.03;4994882;28;20118;-73
2023/09/17 11:22:58;;;;;;;7.40;5.25;;;;;;;27.80;65.31;100149.47;4970160;28;20051;-73
2023/09/17 11:25:39;;;;;;;7.78;4.57;;;;;;;27.66;65.03;100136.72;4969322;28;20062;-73
2023/09/17 11:28:12;;;;;;;8.00;4.75;;;;;;;27.69;67.27;100141.81;4969451;28;21172;-73